Time;durP1;ratioP1;P1;durP2;ratioP2;P2;SDS_P1;SDS_P2;PMS_P1;PMS_P2;Temp;Humidity;BMP_temperature;BMP_pressure;BME280_temperature;BME280_humidity;BME280_pressure;Samples;Min_cycle;Max_cycle;Signal;HPM_P1;HPM_P2
2022/10/22 00:00:00;;;;;;;;;;;23.40;99.90;;;;;;4995073;28;20424;-55
2022/10/22 00:02:26;;;;;;;;;;;23.40;99.90;;;;;;4994659;28;19956;-56
2022/10/22 00:04:52;;;;;;;;;;;23.40;99.90;;;;;;4994874;28;19906;-56
2022/10/22 00:07:18;;;;;;;;;;;23.40;99.90;;;;;;4994693;28;19905;-56
2022/10/22 00:09:44;;;;;;;;;;;23.40;99.90;;;;;;4994704;28;19953;-56
2022/10/22 00:12:10;;;;;;;;;;;23.40;99.90;;;;;;4993435;28;19960;-56
2022/10/22 00:14:36;;;;;;;;;;;23.40;99.90;;;;;;4994459;28;19912;-56
2022/10/22 00:17:01;;;;;;;;;;;23.40;99.90;;;;;;4994441;28;19912;-56
2022/10/22 00:19:27;;;;;;;;;;;23.30;99.90;;;;;;4994358;28;19905;-56
2022/10/22 00:21:53;;;;;;;;;;;23.30;99.90;;;;;;4994333;28;19905;-56
2022/10/22 00:24:19;;;;;;;;;;;23.30;99.90;;;;;;4994344;28;19913;-56
2022/10/22 00:26:44;;;;;;;;;;;23.30;99.90;;;;;;4994491;28;19952;-56
2022/10/22 00:29:10;;;;;;;;;;;23.30;99.90;;;;;;4994255;28;19909;-56
2022/10/22 00:31:35;;;;;;;;;;;23.30;99.90;;;;;;4994192;28;19964;-55
2022/10/22 00:34:01;;;;;;;;;;;23.30;99.90;;;;;;4994202;28;19917;-55
2022/10/22 00:36:27;;;;;;;;;;;23.30;99.90;;;;;;4994028;28;19905;-56
2022/10/22 00:38:52;;;;;;;;;;;23.30;99.90;;;;;;4994031;28;19905;-56
2022/10/22 00:41:18;;;;;;;;;;;23.30;99.90;;;;;;4993938;28;19912;-56
2022/10/22 00:43:57;;;;;;;;;;;23.30;99.90;;;;;;4992646;28;19984;-56
2022/10/22 00:46:23;;;;;;;;;;;23.30;99.90;;;;;;4993076;28;20364;-55
2022/10/22 00:48:49;;;;;;;;;;;23.30;99.90;;;;;;4993980;28;19906;-56
2022/10/22 00:51:15;;;;;;;;;;;23.30;99.90;;;;;;4994152;28;19912;-56
2022/10/22 00:53:44;;;;;;;;;;;23.30;99.90;;;;;;4993762;28;19910;-56
2022/10/22 00:56:10;;;;;;;;;;;23.30;99.90;;;;;;4993742;28;20369;-55
2022/10/22 00:58:37;;;;;;;;;;;23.30;99.90;;;;;;4993633;28;19913;-55
2022/10/22 01:01:04;;;;;;;;;;;23.20;99.90;;;;;;4993915;28;19925;-56
2022/10/22 01:03:30;;;;;;;;;;;23.20;99.90;;;;;;4993599;28;19914;-56
2022/10/22 01:05:57;;;;;;;;;;;23.20;99.90;;;;;;4993389;28;20353;-56
2022/10/22 01:08:31;;;;;;;;;;;23.20;99.90;;;;;;4993450;28;19996;-56
2022/10/22 01:11:20;;;;;;;;;;;23.20;99.90;;;;;;4993502;28;19906;-56
2022/10/22 01:13:45;;;;;;;;;;;23.20;99.90;;;;;;4990387;28;19937;-56
2022/10/22 01:16:29;;;;;;;;;;;23.20;99.90;;;;;;4993316;28;20380;-56
2022/10/22 01:19:08;;;;;;;;;;;23.10;99.90;;;;;;4993275;28;19912;-56
2022/10/22 01:21:45;;;;;;;;;;;23.10;99.90;;;;;;4993276;28;20357;-56
2022/10/22 01:24:14;;;;;;;;;;;23.10;99.90;;;;;;4992867;28;20008;-56
2022/10/22 01:26:52;;;;;;;;;;;23.10;99.90;;;;;;4993278;28;19960;-55
2022/10/22 01:29:21;;;;;;;;;;;23.00;99.90;;;;;;4993431;28;19955;-56
2022/10/22 01:31:50;;;;;;;;;;;23.00;99.90;;;;;;4993099;28;19910;-55
2022/10/22 01:34:17;;;;;;;;;;;23.00;99.90;;;;;;4993051;28;19912;-55
2022/10/22 01:36:43;;;;;;;;;;;23.00;99.90;;;;;;4993052;28;20391;-55
2022/10/22 01:39:09;;;;;;;;;;;23.00;99.90;;;;;;4992877;28;20372;-56
2022/10/22 01:41:35;;;;;;;;;;;23.00;99.90;;;;;;4993000;28;19906;-55
2022/10/22 01:44:01;;;;;;;;;;;23.00;99.90;;;;;;4992762;28;19918;-55
2022/10/22 01:46:27;;;;;;;;;;;23.00;99.90;;;;;;4992774;28;19906;-56
2022/10/22 01:49:11;;;;;;;;;;;23.00;99.90;;;;;;4992855;28;19906;-56
2022/10/22 01:51:37;;;;;;;;;;;22.90;99.90;;;;;;4992762;28;19906;-55
2022/10/22 01:54:02;;;;;;;;;;;23.00;99.90;;;;;;4992713;28;19913;-55
2022/10/22 01:56:48;;;;;;;;;;;22.90;99.90;;;;;;4992552;28;19961;-55
2022/10/22 01:59:26;;;;;;;;;;;23.00;99.90;;;;;;4992862;28;20472;-54
2022/10/22 02:02:12;;;;;;;;;;;22.90;99.90;;;;;;4992372;28;19967;-54
2022/10/22 02:05:04;;;;;;;;;;;22.90;99.90;;;;;;4992122;28;19914;-54
2022/10/22 02:07:32;;;;;;;;;;;22.90;99.90;;;;;;4991540;28;20000;-55
2022/10/22 02:09:58;;;;;;;;;;;23.00;99.90;;;;;;4992527;28;19913;-55
2022/10/22 02:12:25;;;;;;;;;;;22.90;99.90;;;;;;4992564;28;20380;-54
2022/10/22 02:14:52;;;;;;;;;;;22.90;99.90;;;;;;4992419;28;19913;-55
2022/10/22 02:17:18;;;;;;;;;;;22.90;99.90;;;;;;4992571;28;19906;-55
2022/10/22 02:19:44;;;;;;;;;;;22.90;99.90;;;;;;4992242;28;19992;-54
2022/10/22 02:22:10;;;;;;;;;;;22.80;99.90;;;;;;4992331;28;19960;-54
2022/10/22 02:24:36;;;;;;;;;;;22.90;99.90;;;;;;4992090;28;19921;-54
2022/10/22 02:27:07;;;;;;;;;;;22.90;99.90;;;;;;4992281;28;19910;-54
2022/10/22 02:29:59;;;;;;;;;;;22.90;99.90;;;;;;4992203;28;20281;-54
2022/10/22 02:32:26;;;;;;;;;;;22.90;99.90;;;;;;4990938;28;19912;-54
2022/10/22 02:34:53;;;;;;;;;;;22.80;99.90;;;;;;4992491;28;19913;-54
2022/10/22 02:37:19;;;;;;;;;;;22.80;99.90;;;;;;4992559;28;19977;-55
2022/10/22 02:39:45;;;;;;;;;;;22.80;99.90;;;;;;4992209;28;19906;-55
2022/10/22 02:42:11;;;;;;;;;;;22.80;99.90;;;;;;4992238;28;20008;-55
2022/10/22 02:44:37;;;;;;;;;;;22.80;99.90;;;;;;4990736;28;19914;-55
2022/10/22 02:47:03;;;;;;;;;;;22.80;99.90;;;;;;4992180;28;19913;-55
2022/10/22 02:49:28;;;;;;;;;;;22.80;99.90;;;;;;4992219;28;20002;-54
2022/10/22 02:51:54;;;;;;;;;;;22.80;99.90;;;;;;4992225;28;19948;-54
2022/10/22 02:54:19;;;;;;;;;;;22.70;99.90;;;;;;4992249;28;19905;-55
2022/10/22 02:56:45;;;;;;;;;;;22.80;99.90;;;;;;4991931;28;20000;-54
2022/10/22 02:59:11;;;;;;;;;;;22.70;99.90;;;;;;4992693;28;19964;-54
2022/10/22 03:01:36;;;;;;;;;;;22.70;99.90;;;;;;5003132;23;19926;-49
2022/10/22 03:04:02;;;;;;;;;;;22.70;99.90;;;;;;4991819;28;19917;-49
2022/10/22 03:06:27;;;;;;;;;;;22.70;99.90;;;;;;4992041;28;19905;-49
2022/10/22 03:08:53;;;;;;;;;;;22.70;99.90;;;;;;4992758;28;20273;-50
2022/10/22 03:11:19;;;;;;;;;;;22.70;99.90;;;;;;4995818;28;19906;-49
2022/10/22 03:13:44;;;;;;;;;;;22.70;99.90;;;;;;4995556;28;19992;-49
2022/10/22 03:16:10;;;;;;;;;;;22.70;99.90;;;;;;4995566;28;19909;-49
2022/10/22 03:18:35;;;;;;;;;;;22.70;99.90;;;;;;4995582;28;19906;-49
2022/10/22 03:21:05;;;;;;;;;;;22.70;99.90;;;;;;4995419;28;20405;-49
2022/10/22 03:23:31;;;;;;;;;;;22.70;99.90;;;;;;4995362;28;19913;-49
2022/10/22 03:25:56;;;;;;;;;;;22.70;99.90;;;;;;4995479;28;19906;-49
2022/10/22 03:28:22;;;;;;;;;;;22.70;99.90;;;;;;4995555;28;19909;-49
2022/10/22 03:30:47;;;;;;;;;;;22.70;99.90;;;;;;4995139;28;19912;-49
2022/10/22 03:33:13;;;;;;;;;;;22.70;99.90;;;;;;4995266;28;20274;-49
2022/10/22 03:35:41;;;;;;;;;;;22.70;99.90;;;;;;4995283;28;19985;-49
2022/10/22 03:38:07;;;;;;;;;;;22.70;99.90;;;;;;4995176;28;20144;-49
2022/10/22 03:40:32;;;;;;;;;;;22.60;99.90;;;;;;4995224;28;20258;-49
2022/10/22 03:42:58;;;;;;;;;;;22.70;99.90;;;;;;4995009;28;19913;-49
2022/10/22 03:45:24;;;;;;;;;;;22.70;99.90;;;;;;5010195;28;19906;-49
2022/10/22 03:47:49;;;;;;;;;;;22.60;99.90;;;;;;4994731;28;20420;-49
2022/10/22 03:50:16;;;;;;;;;;;22.60;99.90;;;;;;4994842;28;19906;-48
2022/10/22 03:52:41;;;;;;;;;;;22.60;99.90;;;;;;4994839;28;20044;-48
2022/10/22 03:55:07;;;;;;;;;;;22.60;99.90;;;;;;4994790;28;19948;-48
2022/10/22 03:57:33;;;;;;;;;;;22.60;99.90;;;;;;4994921;28;19912;-48
2022/10/22 03:59:59;;;;;;;;;;;22.60;99.90;;;;;;4995213;28;19924;-49
2022/10/22 04:02:24;;;;;;;;;;;22.60;99.90;;;;;;4995483;28;20341;-48
2022/10/22 04:04:50;;;;;;;;;;;22.60;99.90;;;;;;4994555;28;20388;-49
2022/10/22 04:07:16;;;;;;;;;;;22.70;99.90;;;;;;4994536;28;19906;-49
2022/10/22 04:09:41;;;;;;;;;;;22.70;99.90;;;;;;4994656;28;19909;-49
2022/10/22 04:12:08;;;;;;;;;;;22.60;99.90;;;;;;4994363;28;19906;-49
2022/10/22 04:14:34;;;;;;;;;;;22.60;99.90;;;;;;4994391;28;19906;-49
2022/10/22 04:16:59;;;;;;;;;;;22.70;99.90;;;;;;4994683;28;19905;-48
2022/10/22 04:19:25;;;;;;;;;;;22.60;99.90;;;;;;4994644;28;20384;-48
2022/10/22 04:21:52;;;;;;;;;;;22.60;99.90;;;;;;4993168;28;19906;-48
2022/10/22 04:24:17;;;;;;;;;;;22.60;99.90;;;;;;4994131;28;19914;-49
2022/10/22 04:26:43;;;;;;;;;;;22.60;99.90;;;;;;4994164;28;19963;-48
2022/10/22 04:29:09;;;;;;;;;;;22.60;99.90;;;;;;4994222;28;20380;-49
2022/10/22 04:31:34;;;;;;;;;;;22.60;99.90;;;;;;4994289;28;19906;-49
2022/10/22 04:34:00;;;;;;;;;;;22.60;99.90;;;;;;4994317;28;20384;-49
2022/10/22 04:36:27;;;;;;;;;;;22.60;99.90;;;;;;4994291;28;20258;-50
2022/10/22 04:38:54;;;;;;;;;;;22.60;99.90;;;;;;4994412;28;19913;-49
2022/10/22 04:41:21;;;;;;;;;;;22.60;99.90;;;;;;4994039;28;19916;-49
2022/10/22 04:43:47;;;;;;;;;;;22.60;99.90;;;;;;4993921;28;19936;-50
2022/10/22 04:46:14;;;;;;;;;;;22.60;99.90;;;;;;4994601;28;19909;-49
2022/10/22 04:48:40;;;;;;;;;;;22.60;99.90;;;;;;4993909;28;19906;-49
2022/10/22 04:51:06;;;;;;;;;;;22.60;99.90;;;;;;4993903;28;19918;-49
2022/10/22 04:53:34;;;;;;;;;;;22.60;99.90;;;;;;4993870;28;20000;-50
2022/10/22 04:56:15;;;;;;;;;;;22.60;99.90;;;;;;4993962;28;20001;-50
2022/10/22 04:58:41;;;;;;;;;;;22.60;99.90;;;;;;4993722;28;19905;-50
2022/10/22 05:01:17;;;;;;;;;;;22.60;99.90;;;;;;4993509;28;19918;-49
2022/10/22 05:03:43;;;;;;;;;;;22.60;99.90;;;;;;4993615;28;19914;-50
2022/10/22 05:06:09;;;;;;;;;;;22.60;99.90;;;;;;4993465;28;20376;-49
2022/10/22 05:08:35;;;;;;;;;;;22.60;99.90;;;;;;4993466;28;20000;-49
2022/10/22 05:11:08;;;;;;;;;;;22.60;99.90;;;;;;4993740;28;20345;-50
2022/10/22 05:13:34;;;;;;;;;;;22.60;99.90;;;;;;4992157;28;19906;-49
2022/10/22 05:16:00;;;;;;;;;;;22.50;99.90;;;;;;4993467;28;19902;-50
2022/10/22 05:18:25;;;;;;;;;;;22.50;99.90;;;;;;4993408;28;19906;-50
2022/10/22 05:20:51;;;;;;;;;;;22.50;99.90;;;;;;4993038;28;20259;-51
2022/10/22 05:23:17;;;;;;;;;;;22.50;99.90;;;;;;4993085;28;19960;-50
2022/10/22 05:25:42;;;;;;;;;;;22.50;99.90;;;;;;4993171;28;20292;-50
2022/10/22 05:28:08;;;;;;;;;;;22.50;99.90;;;;;;4993059;28;19910;-50
2022/10/22 05:30:33;;;;;;;;;;;22.50;99.90;;;;;;4991900;28;19971;-50
2022/10/22 05:32:59;;;;;;;;;;;22.50;99.90;;;;;;4992586;28;20009;-50
2022/10/22 05:35:24;;;;;;;;;;;22.50;99.90;;;;;;4992848;28;20164;-50
2022/10/22 05:37:50;;;;;;;;;;;22.50;99.90;;;;;;4992899;28;20234;-50
2022/10/22 05:40:16;;;;;;;;;;;22.50;99.90;;;;;;4992874;28;19905;-50
2022/10/22 05:42:41;;;;;;;;;;;22.50;99.90;;;;;;4992775;28;20370;-50
2022/10/22 05:45:07;;;;;;;;;;;22.50;99.90;;;;;;4992570;28;19960;-50
2022/10/22 05:47:33;;;;;;;;;;;22.50;99.90;;;;;;4992761;28;19910;-51
2022/10/22 05:49:58;;;;;;;;;;;22.50;99.90;;;;;;4992506;28;19905;-50
2022/10/22 05:52:24;;;;;;;;;;;22.50;99.90;;;;;;4992621;28;19905;-50
2022/10/22 05:54:50;;;;;;;;;;;22.50;99.90;;;;;;5007672;28;19910;-50
2022/10/22 05:57:15;;;;;;;;;;;22.50;99.90;;;;;;4992693;28;19952;-50
2022/10/22 05:59:41;;;;;;;;;;;22.50;99.90;;;;;;4992550;28;19909;-50
2022/10/22 06:02:09;;;;;;;;;;;22.50;99.90;;;;;;4992286;28;19909;-50
2022/10/22 06:04:35;;;;;;;;;;;22.50;99.90;;;;;;5007539;28;19914;-50
2022/10/22 06:07:01;;;;;;;;;;;22.50;99.90;;;;;;4992483;28;19917;-51
2022/10/22 06:09:29;;;;;;;;;;;22.50;99.90;;;;;;4992284;28;19910;-50
2022/10/22 06:11:55;;;;;;;;;;;22.50;99.90;;;;;;4992253;28;19961;-51
2022/10/22 06:14:21;;;;;;;;;;;22.50;99.90;;;;;;4991050;28;20267;-50
2022/10/22 06:16:47;;;;;;;;;;;22.50;99.90;;;;;;4992115;28;20003;-50
2022/10/22 06:19:14;;;;;;;;;;;22.50;99.90;;;;;;4990914;28;19956;-50
2022/10/22 06:21:39;;;;;;;;;;;22.50;99.90;;;;;;4992418;28;19985;-50
2022/10/22 06:24:06;;;;;;;;;;;22.50;99.90;;;;;;4992352;28;20481;-50
2022/10/22 06:26:31;;;;;;;;;;;22.40;99.90;;;;;;4992189;28;19906;-50
2022/10/22 06:28:57;;;;;;;;;;;22.50;99.90;;;;;;4992132;28;20704;-50
2022/10/22 06:31:24;;;;;;;;;;;22.50;99.90;;;;;;4992076;28;19928;-50
2022/10/22 06:33:49;;;;;;;;;;;22.50;99.90;;;;;;4992178;28;20001;-50
2022/10/22 06:36:17;;;;;;;;;;;22.40;99.90;;;;;;4992153;28;19906;-50
2022/10/22 06:38:43;;;;;;;;;;;22.40;99.90;;;;;;4990992;28;20338;-50
2022/10/22 06:41:10;;;;;;;;;;;22.50;99.90;;;;;;4991081;28;20004;-50
2022/10/22 06:43:36;;;;;;;;;;;22.40;99.90;;;;;;4992391;28;19981;-50
2022/10/22 06:46:02;;;;;;;;;;;22.50;99.90;;;;;;4996304;28;19913;-50
2022/10/22 06:48:28;;;;;;;;;;;22.50;99.90;;;;;;4996068;28;19913;-51
2022/10/22 06:50:54;;;;;;;;;;;22.50;99.90;;;;;;4996113;28;19913;-54
2022/10/22 06:53:19;;;;;;;;;;;22.50;99.90;;;;;;4994665;28;19905;-50
2022/10/22 06:55:45;;;;;;;;;;;22.50;99.90;;;;;;4996132;28;19909;-51
2022/10/22 06:58:11;;;;;;;;;;;22.50;99.90;;;;;;4995964;28;20286;-50
2022/10/22 07:00:36;;;;;;;;;;;22.50;99.90;;;;;;4995862;28;19917;-51
2022/10/22 07:03:02;;;;;;;;;;;22.50;99.90;;;;;;4995631;28;19918;-50
2022/10/22 07:05:27;;;;;;;;;;;22.50;99.90;;;;;;4995775;28;20374;-49
2022/10/22 07:07:53;;;;;;;;;;;22.50;99.90;;;;;;4995586;28;19992;-49
2022/10/22 07:10:18;;;;;;;;;;;22.50;99.90;;;;;;4995670;28;19905;-48
2022/10/22 07:12:44;;;;;;;;;;;22.50;99.90;;;;;;4995452;28;19917;-49
2022/10/22 07:15:10;;;;;;;;;;;22.50;99.90;;;;;;4995637;28;20056;-49
2022/10/22 07:17:36;;;;;;;;;;;22.50;99.90;;;;;;4995699;28;19988;-48
2022/10/22 07:20:02;;;;;;;;;;;22.50;99.90;;;;;;4995409;28;19914;-48
2022/10/22 07:22:27;;;;;;;;;;;22.50;99.90;;;;;;4995366;28;19901;-48
2022/10/22 07:24:53;;;;;;;;;;;22.50;99.90;;;;;;4995363;28;19935;-49
2022/10/22 07:27:19;;;;;;;;;;;22.50;99.90;;;;;;4995310;28;19910;-49
2022/10/22 07:29:44;;;;;;;;;;;22.50;99.90;;;;;;4995226;28;19905;-49
2022/10/22 07:32:10;;;;;;;;;;;22.60;99.90;;;;;;4995305;28;19964;-49
2022/10/22 07:34:36;;;;;;;;;;;22.60;99.90;;;;;;4995073;28;20428;-48
2022/10/22 07:37:01;;;;;;;;;;;22.60;99.90;;;;;;4993973;28;19913;-49
2022/10/22 07:39:27;;;;;;;;;;;22.60;99.90;;;;;;4995033;28;19906;-49
2022/10/22 07:41:53;;;;;;;;;;;22.60;99.90;;;;;;4995058;28;19910;-48
2022/10/22 07:44:19;;;;;;;;;;;22.60;99.90;;;;;;4994716;28;19975;-49
2022/10/22 07:46:44;;;;;;;;;;;22.70;99.90;;;;;;4994913;28;19912;-49
2022/10/22 07:49:10;;;;;;;;;;;22.70;99.90;;;;;;4995149;28;19913;-49
2022/10/22 07:51:35;;;;;;;;;;;22.70;99.90;;;;;;4994984;28;19905;-49
2022/10/22 07:54:01;;;;;;;;;;;22.70;99.90;;;;;;4995029;28;19905;-50
2022/10/22 07:56:27;;;;;;;;;;;22.70;99.90;;;;;;4994432;28;19909;-49
2022/10/22 07:58:52;;;;;;;;;;;22.70;99.90;;;;;;4994675;28;19927;-49
2022/10/22 08:01:18;;;;;;;;;;;22.70;99.90;;;;;;4994485;28;19918;-49
2022/10/22 08:03:43;;;;;;;;;;;22.80;99.90;;;;;;4994516;28;19914;-49
2022/10/22 08:06:12;;;;;;;;;;;22.80;99.90;;;;;;4994751;28;19906;-49
2022/10/22 08:08:37;;;;;;;;;;;22.80;99.90;;;;;;4994288;28;19902;-50
2022/10/22 08:11:03;;;;;;;;;;;22.80;99.90;;;;;;4994570;28;19910;-50
2022/10/22 08:13:29;;;;;;;;;;;22.80;99.90;;;;;;4994484;28;19906;-50
2022/10/22 08:15:55;;;;;;;;;;;22.90;99.90;;;;;;4994493;28;19964;-50
2022/10/22 08:18:21;;;;;;;;;;;22.90;99.90;;;;;;4994237;28;19913;-50
2022/10/22 08:20:47;;;;;;;;;;;22.90;99.90;;;;;;4994221;28;20009;-50
2022/10/22 08:23:12;;;;;;;;;;;22.90;99.90;;;;;;4994267;28;20010;-50
2022/10/22 08:25:38;;;;;;;;;;;23.00;99.90;;;;;;4994244;28;20268;-50
2022/10/22 08:28:03;;;;;;;;;;;23.00;99.90;;;;;;4994094;28;20332;-49
2022/10/22 08:30:29;;;;;;;;;;;23.00;99.90;;;;;;4994083;28;19951;-50
2022/10/22 08:32:55;;;;;;;;;;;23.00;99.90;;;;;;4994033;28;20167;-49
2022/10/22 08:35:21;;;;;;;;;;;23.00;99.90;;;;;;4993914;28;19916;-49
2022/10/22 08:37:46;;;;;;;;;;;23.00;99.90;;;;;;4993774;28;19906;-49
2022/10/22 08:40:20;;;;;;;;;;;23.00;99.90;;;;;;4992543;28;19909;-50
2022/10/22 08:43:09;;;;;;;;;;;23.10;99.90;;;;;;4993600;28;19906;-49
2022/10/22 08:45:35;;;;;;;;;;;23.10;99.90;;;;;;4993308;28;20380;-49
2022/10/22 08:48:24;;;;;;;;;;;23.10;99.90;;;;;;4993541;28;19906;-50
2022/10/22 08:50:52;;;;;;;;;;;23.10;99.90;;;;;;4992346;28;19905;-49
2022/10/22 08:53:20;;;;;;;;;;;23.10;99.90;;;;;;4993592;28;19914;-50
2022/10/22 08:55:46;;;;;;;;;;;23.20;99.90;;;;;;4993607;28;19976;-50
2022/10/22 08:58:16;;;;;;;;;;;23.20;99.90;;;;;;4993578;28;19906;-50
2022/10/22 09:00:45;;;;;;;;;;;23.20;99.90;;;;;;4993237;28;19918;-50
2022/10/22 09:03:13;;;;;;;;;;;23.30;99.90;;;;;;4993377;28;19913;-49
2022/10/22 09:05:42;;;;;;;;;;;23.30;99.90;;;;;;5008283;28;19912;-50
2022/10/22 09:08:12;;;;;;;;;;;23.40;99.90;;;;;;4992389;28;20436;-50
2022/10/22 09:10:41;;;;;;;;;;;23.40;99.90;;;;;;4991926;28;20270;-49
2022/10/22 09:13:08;;;;;;;;;;;23.40;99.90;;;;;;4993225;28;19906;-51
2022/10/22 09:15:34;;;;;;;;;;;23.40;99.90;;;;;;4993125;28;20008;-50
2022/10/22 09:18:18;;;;;;;;;;;23.40;99.90;;;;;;4993114;28;19952;-50
2022/10/22 09:20:55;;;;;;;;;;;23.50;99.90;;;;;;4993022;28;19956;-49
2022/10/22 09:23:30;;;;;;;;;;;23.50;99.90;;;;;;4992828;28;20305;-50
2022/10/22 09:25:56;;;;;;;;;;;23.50;99.90;;;;;;4993076;28;19952;-50
2022/10/22 09:28:22;;;;;;;;;;;23.60;99.90;;;;;;4991624;28;20052;-50
2022/10/22 09:30:47;;;;;;;;;;;23.60;99.90;;;;;;4993147;28;19989;-50
2022/10/22 09:33:16;;;;;;;;;;;23.60;99.90;;;;;;4992862;28;19952;-49
2022/10/22 09:36:08;;;;;;;;;;;23.70;99.90;;;;;;4993032;28;19902;-50
2022/10/22 09:38:38;;;;;;;;;;;23.70;99.90;;;;;;4992568;28;19909;-49
2022/10/22 09:41:04;;;;;;;;;;;23.70;99.90;;;;;;4992844;28;19910;-50
2022/10/22 09:43:30;;;;;;;;;;;23.80;99.90;;;;;;4992567;28;19960;-49
2022/10/22 09:46:00;;;;;;;;;;;23.80;99.90;;;;;;4992489;28;19952;-50
2022/10/22 09:48:30;;;;;;;;;;;23.80;99.90;;;;;;4992292;28;19917;-49
2022/10/22 09:51:14;;;;;;;;;;;23.80;99.90;;;;;;4992541;28;19912;-49
2022/10/22 09:53:44;;;;;;;;;;;23.80;99.90;;;;;;4992592;28;19909;-49
2022/10/22 09:56:30;;;;;;;;;;;23.90;99.90;;;;;;4992432;28;19916;-49
2022/10/22 09:58:57;;;;;;;;;;;23.90;99.90;;;;;;4991855;28;19906;-49
2022/10/22 10:01:24;;;;;;;;;;;24.00;99.90;;;;;;4992294;28;19928;-49
2022/10/22 10:03:49;;;;;;;;;;;24.00;99.90;;;;;;4992595;28;19986;-49
2022/10/22 10:06:19;;;;;;;;;;;24.00;99.90;;;;;;4992353;28;19992;-49
2022/10/22 10:08:45;;;;;;;;;;;24.10;99.90;;;;;;4992388;28;19979;-49
2022/10/22 10:11:27;;;;;;;;;;;24.10;99.90;;;;;;4992406;28;19909;-49
2022/10/22 10:13:56;;;;;;;;;;;24.10;99.90;;;;;;4992258;28;20325;-49
2022/10/22 10:16:27;;;;;;;;;;;24.10;99.90;;;;;;4992348;28;19906;-50
2022/10/22 10:19:03;;;;;;;;;;;24.20;99.90;;;;;;4992273;28;19961;-49
2022/10/22 10:21:31;;;;;;;;;;;24.20;99.90;;;;;;4992269;28;19906;-49
2022/10/22 10:24:03;;;;;;;;;;;24.20;99.90;;;;;;4991965;28;19920;-49
2022/10/22 10:26:38;;;;;;;;;;;24.20;99.90;;;;;;4992236;28;19948;-49
2022/10/22 10:29:09;;;;;;;;;;;24.30;99.90;;;;;;4992187;28;20113;-49
2022/10/22 10:31:41;;;;;;;;;;;24.30;99.90;;;;;;4992194;28;19913;-49
2022/10/22 10:34:12;;;;;;;;;;;24.30;99.90;;;;;;4992240;28;19906;-49
2022/10/22 10:36:52;;;;;;;;;;;24.30;99.90;;;;;;4992088;28;19992;-49
2022/10/22 10:39:31;;;;;;;;;;;24.40;99.90;;;;;;4992146;28;19988;-49
2022/10/22 10:42:15;;;;;;;;;;;24.40;99.90;;;;;;4990815;28;19992;-49
2022/10/22 10:44:40;;;;;;;;;;;24.50;99.90;;;;;;4991879;28;20278;-49
2022/10/22 10:47:09;;;;;;;;;;;24.50;99.90;;;;;;4991893;28;19913;-49
2022/10/22 10:49:35;;;;;;;;;;;24.50;99.90;;;;;;4991995;28;19984;-49
2022/10/22 10:52:10;;;;;;;;;;;24.60;99.90;;;;;;4991918;28;19913;-50
2022/10/22 10:54:47;;;;;;;;;;;24.50;99.90;;;;;;5007023;28;19906;-49
2022/10/22 10:57:19;;;;;;;;;;;24.60;99.90;;;;;;4991737;28;19913;-49
2022/10/22 11:00:00;;;;;;;;;;;24.60;99.90;;;;;;4991731;28;19917;-49
2022/10/22 11:02:32;;;;;;;;;;;24.70;99.90;;;;;;4991712;28;19905;-49
2022/10/22 11:05:09;;;;;;;;;;;24.70;99.90;;;;;;4991718;28;20281;-49
2022/10/22 11:07:46;;;;;;;;;;;24.70;99.90;;;;;;4991787;28;20385;-50
2022/10/22 11:10:21;;;;;;;;;;;24.80;99.90;;;;;;4991946;28;20354;-50
2022/10/22 11:12:50;;;;;;;;;;;24.90;99.90;;;;;;4991754;28;19906;-49
2022/10/22 11:15:35;;;;;;;;;;;24.90;99.90;;;;;;4991585;28;20308;-50
2022/10/22 11:18:21;;;;;;;;;;;25.00;99.90;;;;;;4991513;28;19906;-50
2022/10/22 11:20:50;;;;;;;;;;;25.00;99.90;;;;;;4991321;28;20005;-50
2022/10/22 11:23:18;;;;;;;;;;;25.00;99.90;;;;;;4991569;28;19914;-50
2022/10/22 11:25:46;;;;;;;;;;;25.00;99.90;;;;;;4991566;28;20313;-49
2022/10/22 11:28:14;;;;;;;;;;;25.10;99.90;;;;;;4991375;28;20362;-49
2022/10/22 11:30:42;;;;;;;;;;;25.10;99.90;;;;;;4993276;28;19920;-49
2022/10/22 11:33:13;;;;;;;;;;;25.10;99.90;;;;;;4995048;28;20345;-49
2022/10/22 11:35:41;;;;;;;;;;;25.10;99.90;;;;;;4995167;28;20013;-49
2022/10/22 11:38:09;;;;;;;;;;;25.10;99.90;;;;;;4994895;28;19905;-50
2022/10/22 11:40:41;;;;;;;;;;;25.10;99.90;;;;;;4994981;28;19906;-49
2022/10/22 11:43:08;;;;;;;;;;;25.20;99.90;;;;;;4994460;28;19905;-49
2022/10/22 11:45:41;;;;;;;;;;;25.20;99.90;;;;;;4994736;28;19906;-49
2022/10/22 11:48:06;;;;;;;;;;;25.20;99.90;;;;;;4994591;28;19906;-49
2022/10/22 11:50:53;;;;;;;;;;;25.20;99.90;;;;;;4994625;28;20299;-49
2022/10/22 11:53:31;;;;;;;;;;;25.20;99.90;;;;;;4994563;28;19954;-49
2022/10/22 11:56:00;;;;;;;;;;;25.20;99.90;;;;;;4994640;28;19948;-50
2022/10/22 11:58:33;;;;;;;;;;;25.20;99.90;;;;;;4994646;28;19906;-49
2022/10/22 12:01:01;;;;;;;;;;;25.20;99.90;;;;;;4994335;28;19917;-50
2022/10/22 12:03:27;;;;;;;;;;;25.30;99.90;;;;;;4994560;28;19914;-48
2022/10/22 12:06:02;;;;;;;;;;;25.30;99.90;;;;;;4994397;28;19913;-48
2022/10/22 12:08:28;;;;;;;;;;;25.20;99.90;;;;;;5009584;28;20266;-49
2022/10/22 12:10:57;;;;;;;;;;;25.30;99.90;;;;;;4994603;28;19909;-49
2022/10/22 12:13:25;;;;;;;;;;;25.20;99.90;;;;;;4994353;28;19996;-49
2022/10/22 12:15:53;;;;;;;;;;;25.30;99.90;;;;;;4994399;28;19906;-48
2022/10/22 12:18:22;;;;;;;;;;;25.30;99.90;;;;;;4993144;28;19910;-48
2022/10/22 12:20:52;;;;;;;;;;;25.30;99.90;;;;;;4994477;28;20358;-48
2022/10/22 12:23:17;;;;;;;;;;;25.30;99.90;;;;;;4994213;28;20302;-48
2022/10/22 12:25:43;;;;;;;;;;;25.30;99.90;;;;;;4993124;28;20004;-49
2022/10/22 12:28:11;;;;;;;;;;;25.30;99.90;;;;;;4994207;28;20366;-48
2022/10/22 12:30:36;;;;;;;;;;;25.30;99.90;;;;;;4994088;28;19906;-48
2022/10/22 12:33:06;;;;;;;;;;;25.30;99.90;;;;;;4994193;28;19913;-48
2022/10/22 12:35:33;;;;;;;;;;;25.30;99.90;;;;;;4994062;28;20337;-48
2022/10/22 12:38:04;;;;;;;;;;;25.40;99.90;;;;;;4994201;28;19913;-48
2022/10/22 12:40:32;;;;;;;;;;;25.40;99.90;;;;;;4992493;28;19949;-48
2022/10/22 12:42:59;;;;;;;;;;;25.40;99.90;;;;;;4991951;28;20485;-51
2022/10/22 12:45:28;;;;;;;;;;;25.40;99.90;;;;;;4985772;28;20381;-51
2022/10/22 12:47:58;;;;;;;;;;;25.40;99.90;;;;;;4983210;28;20314;-49
2022/10/22 12:50:32;;;;;;;;;;;25.50;99.90;;;;;;4984723;28;19912;-49
2022/10/22 12:52:57;;;;;;;;;;;25.50;99.90;;;;;;4984794;28;19914;-51
2022/10/22 12:55:25;;;;;;;;;;;25.50;99.90;;;;;;4988069;28;19965;-48
2022/10/22 12:57:50;;;;;;;;;;;25.60;99.90;;;;;;4993214;28;20008;-49
2022/10/22 13:00:21;;;;;;;;;;;25.60;99.90;;;;;;4991591;28;20000;-49
2022/10/22 13:02:47;;;;;;;;;;;25.70;99.90;;;;;;4990268;28;20430;-48
2022/10/22 13:05:17;;;;;;;;;;;25.70;99.90;;;;;;4992429;28;20004;-48
2022/10/22 13:07:46;;;;;;;;;;;25.70;99.90;;;;;;4992783;28;19905;-49
2022/10/22 13:10:31;;;;;;;;;;;25.80;99.90;;;;;;4993693;28;19924;-49
2022/10/22 13:12:57;;;;;;;;;;;25.80;99.90;;;;;;4993369;28;19906;-48
2022/10/22 13:15:26;;;;;;;;;;;25.90;99.90;;;;;;4992589;28;19949;-49
2022/10/22 13:18:00;;;;;;;;;;;25.90;99.90;;;;;;4993127;28;19941;-48
2022/10/22 13:20:25;;;;;;;;;;;25.90;99.90;;;;;;4991692;28;20111;-49
2022/10/22 13:23:02;;;;;;;;;;;26.00;99.90;;;;;;4980911;28;20534;-49
2022/10/22 13:25:28;;;;;;;;;;;26.00;99.90;;;;;;4990876;28;19940;-49
2022/10/22 13:28:01;;;;;;;;;;;26.00;99.90;;;;;;4992787;28;19910;-50
2022/10/22 13:30:29;;;;;;;;;;;26.00;99.90;;;;;;4986399;28;19914;-49
2022/10/22 13:32:56;;;;;;;;;;;26.00;99.90;;;;;;4987860;28;19910;-50
2022/10/22 13:35:23;;;;;;;;;;;26.00;99.90;;;;;;4974146;28;19910;-49
2022/10/22 13:37:49;;;;;;;;;;;26.10;99.90;;;;;;4971767;28;19941;-48
2022/10/22 13:40:15;;;;;;;;;;;26.20;99.90;;;;;;4971732;28;19952;-48
2022/10/22 13:42:40;;;;;;;;;;;26.30;99.90;;;;;;4972018;28;19925;-48
2022/10/22 13:45:06;;;;;;;;;;;26.30;99.90;;;;;;4971439;28;20011;-48
2022/10/22 13:47:32;;;;;;;;;;;26.20;99.90;;;;;;4971910;28;19913;-50
2022/10/22 13:50:00;;;;;;;;;;;26.20;99.90;;;;;;4971561;28;19952;-49
2022/10/22 13:52:27;;;;;;;;;;;26.20;99.90;;;;;;4971194;28;19906;-50
2022/10/22 13:54:53;;;;;;;;;;;26.20;99.90;;;;;;4971370;28;20330;-49
2022/10/22 13:57:18;;;;;;;;;;;26.10;99.90;;;;;;4975348;28;19913;-49
2022/10/22 13:59:44;;;;;;;;;;;26.10;99.90;;;;;;4980832;28;19914;-50
2022/10/22 14:02:13;;;;;;;;;;;26.10;99.90;;;;;;4972034;28;20273;-50
2022/10/22 14:04:39;;;;;;;;;;;26.10;99.90;;;;;;4970795;28;19914;-50
2022/10/22 14:07:15;;;;;;;;;;;26.10;99.90;;;;;;4972287;28;19933;-51
2022/10/22 14:09:41;;;;;;;;;;;26.10;99.90;;;;;;4983740;28;19910;-49
2022/10/22 14:12:11;;;;;;;;;;;26.10;99.90;;;;;;4991134;28;19988;-49
2022/10/22 14:14:37;;;;;;;;;;;26.10;99.90;;;;;;4990993;28;19952;-49
2022/10/22 14:17:03;;;;;;;;;;;26.10;99.90;;;;;;4989654;28;19995;-50
2022/10/22 14:19:29;;;;;;;;;;;26.10;99.90;;;;;;4982784;28;20306;-49
2022/10/22 14:21:54;;;;;;;;;;;26.20;99.90;;;;;;4992169;28;19996;-50